Time;durP1;ratioP1;P1;durP2;ratioP2;P2;SDS_P1;SDS_P2;PMS_P1;PMS_P2;Temp;Humidity;BMP_temperature;BMP_pressure;BME280_temperature;BME280_humidity;BME280_pressure;Samples;Min_cycle;Max_cycle;Signal;HPM_P1;HPM_P2
2022/01/10 00:00:16;;;;;;;3.55;2.33;;;23.30;32.20;;;;;;5093345;28;20385;-67
2022/01/10 00:02:44;;;;;;;3.00;2.35;;;23.30;32.20;;;;;;5094883;28;20476;-67
2022/01/10 00:05:10;;;;;;;3.47;2.40;;;23.40;32.00;;;;;;5094584;28;20386;-65
2022/01/10 00:07:36;;;;;;;3.50;2.60;;;23.30;31.90;;;;;;5094207;28;21011;-66
2022/01/10 00:10:03;;;;;;;2.78;2.20;;;23.20;32.00;;;;;;5094173;28;20469;-66
2022/01/10 00:12:29;;;;;;;2.97;2.42;;;23.20;32.20;;;;;;5094361;28;20425;-68
2022/01/10 00:14:55;;;;;;;3.00;2.08;;;23.20;32.10;;;;;;5094457;28;20370;-68
2022/01/10 00:17:20;;;;;;;2.87;2.10;;;23.20;32.10;;;;;;5094266;28;20416;-68
2022/01/10 00:19:46;;;;;;;3.00;2.15;;;23.20;32.10;;;;;;5092978;28;20575;-67
2022/01/10 00:22:12;;;;;;;2.80;2.27;;;23.20;31.60;;;;;;5093841;28;20390;-65
2022/01/10 00:24:38;;;;;;;3.22;2.28;;;23.20;32.10;;;;;;5094240;28;20382;-67
2022/01/10 00:27:05;;;;;;;3.05;2.40;;;23.10;32.20;;;;;;5094164;28;20385;-67
2022/01/10 00:29:30;;;;;;;2.50;2.10;;;23.10;32.00;;;;;;5094235;28;20394;-68
2022/01/10 00:31:57;;;;;;;3.28;2.22;;;23.10;31.90;;;;;;5093787;28;20416;-65
2022/01/10 00:34:24;;;;;;;3.00;2.45;;;23.10;32.10;;;;;;5093993;28;20902;-64
2022/01/10 00:36:49;;;;;;;3.00;2.28;;;23.10;31.60;;;;;;5092695;28;20781;-67
2022/01/10 00:39:15;;;;;;;3.00;2.10;;;23.10;32.00;;;;;;5093948;28;20386;-65
2022/01/10 00:41:41;;;;;;;2.97;2.30;;;23.00;32.20;;;;;;5093900;28;20858;-68
2022/01/10 00:44:09;;;;;;;2.93;2.10;;;23.00;32.10;;;;;;5093343;28;20413;-67
2022/01/10 00:46:35;;;;;;;2.95;2.20;;;23.00;32.00;;;;;;5093756;28;20862;-68
2022/01/10 00:49:01;;;;;;;2.90;2.40;;;23.00;32.10;;;;;;5093873;28;20385;-65
2022/01/10 00:51:26;;;;;;;3.10;2.20;;;23.00;31.80;;;;;;5093646;28;20808;-67
2022/01/10 00:53:52;;;;;;;2.80;2.20;;;23.00;32.00;;;;;;5093472;28;20394;-66
2022/01/10 00:56:19;;;;;;;3.30;2.50;;;22.90;32.60;;;;;;5093292;28;20390;-68
2022/01/10 00:58:46;;;;;;;2.80;2.15;;;22.90;32.30;;;;;;5093633;28;20478;-68
2022/01/10 01:01:11;;;;;;;2.50;1.90;;;22.90;32.20;;;;;;5093584;28;20440;-68
2022/01/10 01:03:37;;;;;;;3.50;2.35;;;22.90;32.10;;;;;;5093003;28;20847;-67
2022/01/10 01:06:03;;;;;;;3.30;2.10;;;22.90;31.90;;;;;;5092475;28;20385;-67
2022/01/10 01:08:32;;;;;;;2.95;2.15;;;22.90;31.80;;;;;;5093208;28;20528;-65
2022/01/10 01:13:50;;;;;;;3.20;2.03;;;22.70;32.40;;;;;;5093364;28;20398;-68
2022/01/10 01:16:29;;;;;;;3.13;1.90;;;22.80;32.30;;;;;;5091461;28;20469;-68
2022/01/10 01:24:07;;;;;;;3.03;2.35;;;22.80;32.10;;;;;;5092685;28;20397;-66
2022/01/10 01:26:38;;;;;;;2.83;1.92;;;22.70;32.30;;;;;;5093016;28;20427;-68
2022/01/10 01:29:10;;;;;;;2.90;2.30;;;22.60;32.20;;;;;;5091724;28;20738;-65
2022/01/10 01:31:37;;;;;;;2.85;2.20;;;22.70;32.50;;;;;;5092754;28;20885;-65
2022/01/10 01:34:03;;;;;;;3.00;2.40;;;22.70;32.00;;;;;;5092466;28;20413;-67
2022/01/10 01:36:30;;;;;;;3.20;2.38;;;22.70;31.90;;;;;;5092875;28;20739;-68
2022/01/10 01:38:56;;;;;;;2.90;2.00;;;22.60;31.90;;;;;;5092852;28;20386;-67
2022/01/10 01:41:35;;;;;;;3.10;1.92;;;22.60;32.00;;;;;;5092677;28;20947;-67
2022/01/10 01:44:02;;;;;;;2.53;2.00;;;22.60;32.10;;;;;;5092336;28;20401;-67
2022/01/10 01:46:29;;;;;;;3.15;2.20;;;22.60;32.20;;;;;;5092686;28;20390;-65
2022/01/10 01:48:56;;;;;;;2.60;2.03;;;22.60;32.40;;;;;;5091399;28;20947;-66
2022/01/10 01:51:22;;;;;;;2.47;2.00;;;22.60;32.00;;;;;;5092399;28;20463;-67
2022/01/10 01:53:49;;;;;;;2.40;1.92;;;22.60;32.10;;;;;;5091201;28;20505;-68
2022/01/10 01:56:15;;;;;;;2.90;2.05;;;22.50;32.10;;;;;;5091974;28;20378;-68
2022/01/10 01:58:43;;;;;;;2.75;2.00;;;22.40;32.20;;;;;;5092484;28;20390;-68
2022/01/10 02:01:10;;;;;;;2.63;2.05;;;22.40;32.00;;;;;;5092369;28;20385;-68
2022/01/10 02:03:41;;;;;;;3.08;2.10;;;22.50;32.70;;;;;;5092317;28;20386;-66
2022/01/10 02:06:07;;;;;;;2.60;1.90;;;22.50;32.30;;;;;;5091905;28;20386;-68
2022/01/10 02:08:34;;;;;;;2.38;1.85;;;22.40;31.90;;;;;;5092113;28;20402;-66
2022/01/10 02:11:01;;;;;;;2.28;1.95;;;22.40;32.10;;;;;;5092163;28;20489;-67
2022/01/10 02:13:26;;;;;;;2.72;2.13;;;22.40;32.40;;;;;;5092046;28;20394;-68
2022/01/10 02:15:59;;;;;;;2.70;1.90;;;22.40;32.30;;;;;;5092011;28;20380;-67
2022/01/10 02:18:25;;;;;;;2.72;1.90;;;22.40;32.10;;;;;;5091836;28;20869;-69
2022/01/10 02:20:51;;;;;;;2.58;1.90;;;22.40;32.10;;;;;;5092127;28;20395;-66
2022/01/10 02:23:18;;;;;;;2.40;1.85;;;22.40;31.90;;;;;;5091933;28;20409;-67
2022/01/10 02:25:46;;;;;;;3.65;2.10;;;22.30;32.00;;;;;;5092045;28;20382;-66
2022/01/10 02:28:12;;;;;;;2.47;1.90;;;22.30;32.10;;;;;;5091553;28;20793;-66
2022/01/10 02:30:38;;;;;;;2.95;2.20;;;22.30;32.10;;;;;;5091822;28;20390;-66
2022/01/10 02:33:04;;;;;;;2.50;2.00;;;22.30;32.10;;;;;;5091928;28;20751;-68
2022/01/10 02:35:38;;;;;;;2.40;1.90;;;22.30;32.00;;;;;;5091765;28;20447;-65
2022/01/10 02:38:04;;;;;;;2.70;1.90;;;22.30;31.90;;;;;;5091445;28;20398;-66
2022/01/10 02:40:32;;;;;;;2.60;1.90;;;22.30;31.90;;;;;;5091743;28;20383;-67
2022/01/10 02:42:58;;;;;;;2.92;1.90;;;22.20;32.30;;;;;;5091770;28;20390;-67
2022/01/10 02:45:25;;;;;;;2.20;1.80;;;22.20;32.20;;;;;;5091745;28;20386;-67
2022/01/10 02:47:52;;;;;;;3.20;2.13;;;22.20;32.50;;;;;;5091700;28;20485;-68
2022/01/10 02:50:19;;;;;;;2.33;1.85;;;22.20;32.10;;;;;;5091121;28;20405;-66
2022/01/10 02:52:45;;;;;;;2.30;1.65;;;22.20;32.20;;;;;;5091586;28;20497;-68
2022/01/10 02:55:12;;;;;;;2.50;1.73;;;22.20;32.00;;;;;;5091457;28;20439;-65
2022/01/10 02:57:38;;;;;;;2.80;1.80;;;22.10;32.10;;;;;;5091665;28;20394;-67
2022/01/10 03:00:11;;;;;;;2.50;1.83;;;22.10;32.00;;;;;;5090104;28;20434;-68
2022/01/10 03:02:37;;;;;;;2.40;1.60;;;22.10;32.10;;;;;;5091481;28;20382;-68
2022/01/10 03:05:05;;;;;;;2.58;2.10;;;22.10;32.10;;;;;;5091543;28;20884;-66
2022/01/10 03:07:33;;;;;;;2.78;1.88;;;22.10;32.00;;;;;;5091417;28;20447;-67
2022/01/10 03:09:59;;;;;;;2.58;1.77;;;22.10;32.00;;;;;;5091554;28;20390;-68
2022/01/10 03:12:25;;;;;;;2.78;1.90;;;22.00;32.00;;;;;;5091041;28;20428;-66
2022/01/10 03:14:50;;;;;;;3.33;2.10;;;22.00;32.10;;;;;;5090204;28;20423;-65
2022/01/10 03:17:16;;;;;;;3.33;1.90;;;22.00;32.10;;;;;;5091319;28;20386;-68
2022/01/10 03:19:43;;;;;;;3.17;1.90;;;22.00;32.10;;;;;;5090113;28;20385;-65
2022/01/10 03:22:09;;;;;;;2.60;1.77;;;22.00;32.10;;;;;;5090983;28;20387;-68
2022/01/10 03:24:35;;;;;;;2.50;1.80;;;22.00;31.90;;;;;;5091192;28;20861;-68
2022/01/10 03:27:02;;;;;;;2.28;1.70;;;22.00;32.10;;;;;;5091371;28;20437;-66
2022/01/10 03:29:28;;;;;;;2.70;1.90;;;21.90;32.10;;;;;;5095362;28;20377;-67
2022/01/10 03:31:54;;;;;;;2.47;1.80;;;21.90;32.30;;;;;;5095260;28;20417;-69
2022/01/10 03:34:19;;;;;;;2.60;1.67;;;21.90;32.20;;;;;;5094754;28;20378;-68
2022/01/10 03:36:45;;;;;;;2.92;1.90;;;21.90;32.20;;;;;;5095156;28;20386;-65
2022/01/10 03:39:12;;;;;;;2.50;1.80;;;21.90;32.00;;;;;;5095152;28;20404;-67
2022/01/10 03:41:38;;;;;;;2.40;1.80;;;21.90;32.00;;;;;;5095103;28;20412;-66
2022/01/10 03:44:06;;;;;;;2.85;1.98;;;21.80;32.10;;;;;;5094821;28;20374;-65
2022/01/10 03:46:33;;;;;;;2.35;1.75;;;21.80;32.40;;;;;;5095036;28;20422;-66
2022/01/10 03:48:59;;;;;;;2.22;1.70;;;21.80;32.20;;;;;;5094883;28;20381;-66
2022/01/10 03:51:25;;;;;;;3.10;1.88;;;21.90;32.30;;;;;;5094844;28;20420;-66
2022/01/10 03:53:51;;;;;;;2.47;1.83;;;21.80;31.90;;;;;;5094855;28;20386;-65
2022/01/10 03:56:16;;;;;;;2.53;1.77;;;21.80;32.10;;;;;;5094310;28;20465;-68
2022/01/10 03:58:42;;;;;;;2.93;1.90;;;21.80;32.20;;;;;;5094798;28;20386;-66
2022/01/10 04:01:09;;;;;;;2.13;1.80;;;21.70;32.30;;;;;;5094780;28;20373;-66
2022/01/10 04:03:37;;;;;;;2.30;1.70;;;21.80;32.30;;;;;;5094583;28;20394;-68
2022/01/10 04:06:03;;;;;;;2.70;1.80;;;21.80;32.30;;;;;;5094444;28;20386;-67
2022/01/10 04:08:28;;;;;;;2.42;1.70;;;21.80;32.10;;;;;;5094170;28;20403;-64
2022/01/10 04:10:54;;;;;;;4.43;2.10;;;21.80;32.80;;;;;;5094620;28;20937;-65
2022/01/10 04:13:20;;;;;;;5.95;2.25;;;21.80;33.20;;;;;;5094343;28;20402;-65
2022/01/10 04:15:46;;;;;;;5.30;2.10;;;21.80;33.70;;;;;;5094330;28;20384;-68
2022/01/10 04:18:12;;;;;;;3.58;2.00;;;21.80;34.70;;;;;;5093749;28;20398;-68
2022/01/10 04:20:38;;;;;;;4.00;1.90;;;21.90;34.60;;;;;;5094272;28;20370;-68
2022/01/10 04:23:03;;;;;;;3.17;1.88;;;21.90;34.50;;;;;;5094580;28;20390;-68
2022/01/10 04:25:29;;;;;;;4.20;2.20;;;21.90;34.30;;;;;;5094134;28;20885;-68
2022/01/10 04:27:55;;;;;;;5.07;1.90;;;22.00;34.00;;;;;;5094177;28;20439;-64
2022/01/10 04:30:21;;;;;;;4.83;1.87;;;22.00;34.50;;;;;;5093774;28;20386;-68
2022/01/10 04:32:46;;;;;;;3.20;1.80;;;22.10;34.30;;;;;;5093755;28;20410;-69
2022/01/10 04:35:13;;;;;;;3.83;1.70;;;22.20;34.30;;;;;;5093808;28;20393;-69
2022/01/10 04:37:39;;;;;;;4.57;1.85;;;22.20;33.80;;;;;;5094233;28;20933;-66
2022/01/10 04:40:06;;;;;;;3.50;1.77;;;22.20;34.70;;;;;;5095200;28;20389;-68
2022/01/10 04:42:32;;;;;;;4.20;1.90;;;22.30;34.70;;;;;;5093623;28;20443;-65
2022/01/10 04:44:58;;;;;;;3.33;1.90;;;22.30;34.40;;;;;;5092314;28;20386;-69
2022/01/10 04:47:23;;;;;;;4.50;2.13;;;22.30;33.90;;;;;;5094489;28;20393;-69
2022/01/10 04:52:23;;;;;;;3.17;2.00;;;22.40;33.70;;;;;;5093113;28;20443;-65
2022/01/10 04:54:49;;;;;;;2.77;1.80;;;22.40;33.60;;;;;;5093673;28;20750;-65
2022/01/10 04:57:15;;;;;;;3.72;2.00;;;22.40;33.70;;;;;;5093603;28;20389;-66
2022/01/10 04:59:40;;;;;;;6.10;2.00;;;22.40;33.80;;;;;;5094175;28;20378;-67
2022/01/10 05:02:07;;;;;;;5.22;2.15;;;22.30;33.80;;;;;;5093197;28;20473;-66
2022/01/10 05:04:33;;;;;;;4.20;1.80;;;22.30;33.50;;;;;;5093120;28;20435;-66
2022/01/10 05:06:59;;;;;;;4.18;1.90;;;22.40;33.50;;;;;;5093396;28;20475;-67
2022/01/10 05:09:24;;;;;;;4.03;2.00;;;22.40;33.10;;;;;;5093051;28;20437;-68
2022/01/10 05:11:50;;;;;;;3.63;2.00;;;22.40;33.50;;;;;;5093338;28;20410;-67
2022/01/10 05:14:16;;;;;;;4.00;2.30;;;22.40;33.60;;;;;;5092961;28;20387;-69
2022/01/10 05:16:42;;;;;;;5.00;2.10;;;22.30;33.30;;;;;;5093142;28;20439;-65
2022/01/10 05:19:08;;;;;;;4.47;1.95;;;22.40;33.40;;;;;;5093106;28;20451;-64
2022/01/10 05:21:34;;;;;;;5.13;1.80;;;22.40;33.20;;;;;;5093057;28;20386;-64
2022/01/10 05:24:00;;;;;;;4.82;2.20;;;22.40;32.60;;;;;;5093116;28;20431;-65
2022/01/10 05:26:25;;;;;;;4.63;1.90;;;22.40;33.40;;;;;;5092556;28;20390;-66
2022/01/10 05:28:57;;;;;;;7.40;2.25;;;22.30;33.20;;;;;;5093023;28;20382;-65
2022/01/10 05:31:23;;;;;;;4.65;2.13;;;22.30;33.80;;;;;;5092902;28;20402;-65
2022/01/10 05:33:49;;;;;;;7.18;2.55;;;22.30;34.20;;;;;;5092945;28;20854;-65
2022/01/10 05:36:15;;;;;;;7.05;2.53;;;22.40;35.70;;;;;;5092356;28;20382;-65
2022/01/10 05:38:41;;;;;;;7.37;2.60;;;22.50;34.90;;;;;;5092844;28;20401;-66
2022/01/10 05:41:06;;;;;;;5.60;2.70;;;22.60;35.60;;;;;;5092648;28;20858;-64
2022/01/10 05:43:32;;;;;;;8.35;3.17;;;22.50;35.60;;;;;;5092750;28;20408;-65
2022/01/10 05:45:58;;;;;;;6.50;2.50;;;22.50;36.00;;;;;;5092688;28;20426;-66
2022/01/10 05:48:30;;;;;;;6.13;2.70;;;22.50;36.00;;;;;;5092141;28;20390;-64
2022/01/10 05:50:55;;;;;;;5.27;2.63;;;22.60;35.40;;;;;;5092314;28;20408;-65
2022/01/10 05:53:22;;;;;;;8.25;3.15;;;22.70;37.30;;;;;;5092649;28;20440;-65
2022/01/10 05:55:48;;;;;;;9.05;3.17;;;22.80;38.30;;;;;;5091276;28;20870;-64
2022/01/10 05:58:15;;;;;;;11.25;3.95;;;22.80;38.50;;;;;;5091902;28;20901;-64
2022/01/10 06:00:40;;;;;;;7.57;3.60;;;22.80;38.70;;;;;;5091249;28;20390;-67
2022/01/10 06:03:07;;;;;;;8.20;3.20;;;22.70;38.00;;;;;;5092242;28;20970;-66
2022/01/10 06:05:33;;;;;;;5.38;3.15;;;22.70;36.60;;;;;;5091002;28;20398;-65
2022/01/10 06:08:00;;;;;;;6.15;3.00;;;22.90;35.90;;;;;;5091489;28;20401;-65
2022/01/10 06:10:26;;;;;;;4.32;2.90;;;23.00;37.60;;;;;;5091038;28;20477;-66
2022/01/10 06:12:53;;;;;;;6.63;2.58;;;23.20;37.10;;;;;;5091955;28;20909;-64
2022/01/10 06:15:19;;;;;;;5.88;2.60;;;23.20;36.50;;;;;;5091497;28;20378;-67
2022/01/10 06:17:44;;;;;;;7.60;2.47;;;23.10;35.40;;;;;;5090913;28;20432;-63
2022/01/10 06:20:11;;;;;;;5.57;2.20;;;23.10;35.60;;;;;;5088599;28;20401;-63
2022/01/10 06:22:36;;;;;;;6.18;2.30;;;23.00;35.90;;;;;;5089569;28;20390;-64
2022/01/10 06:25:03;;;;;;;4.80;2.03;;;22.90;36.10;;;;;;5090240;28;20393;-69
2022/01/10 06:27:29;;;;;;;4.30;2.10;;;22.90;36.60;;;;;;5089905;28;20436;-68
2022/01/10 06:29:55;;;;;;;3.83;1.80;;;22.80;36.70;;;;;;5089979;28;20453;-66
2022/01/10 06:32:20;;;;;;;4.50;1.90;;;22.80;36.80;;;;;;5089386;28;21103;-68
2022/01/10 06:34:46;;;;;;;4.67;1.70;;;22.80;37.20;;;;;;5090079;28;20386;-68
2022/01/10 06:37:12;;;;;;;4.60;1.67;;;22.80;37.30;;;;;;5090192;28;20386;-68
2022/01/10 06:39:38;;;;;;;3.30;1.70;;;22.80;36.60;;;;;;5090723;28;20390;-68
2022/01/10 06:42:04;;;;;;;3.80;1.52;;;22.70;36.00;;;;;;5090488;28;20394;-68
2022/01/10 06:44:30;;;;;;;4.05;1.73;;;22.60;36.00;;;;;;5089383;28;20421;-67
2022/01/10 06:46:56;;;;;;;3.30;1.60;;;22.50;35.90;;;;;;5090058;28;20791;-69
2022/01/10 06:49:21;;;;;;;2.92;1.38;;;22.50;35.80;;;;;;5090035;28;20737;-66
2022/01/10 06:51:47;;;;;;;3.97;1.65;;;22.50;35.40;;;;;;5090824;28;20429;-68
2022/01/10 06:54:13;;;;;;;2.10;1.40;;;22.50;35.30;;;;;;5090703;28;20449;-68
2022/01/10 06:56:38;;;;;;;2.80;1.33;;;22.50;35.00;;;;;;5090482;28;20386;-70
2022/01/10 06:59:04;;;;;;;4.30;1.70;;;22.40;35.50;;;;;;5090908;28;20386;-69
2022/01/10 07:01:30;;;;;;;5.53;1.50;;;22.40;35.40;;;;;;5090378;28;20893;-69
2022/01/10 07:03:57;;;;;;;3.27;1.43;;;22.30;35.50;;;;;;5093926;28;20381;-69
2022/01/10 07:06:23;;;;;;;3.92;1.33;;;22.40;35.30;;;;;;5092829;28;20397;-69
2022/01/10 07:08:49;;;;;;;2.85;1.45;;;22.40;35.40;;;;;;5094388;28;20762;-68
2022/01/10 07:11:15;;;;;;;2.72;1.30;;;22.30;34.60;;;;;;5091763;28;20466;-66
2022/01/10 07:13:40;;;;;;;2.73;1.53;;;22.20;34.80;;;;;;5093370;28;20394;-70
2022/01/10 07:16:06;;;;;;;2.50;1.40;;;22.20;34.80;;;;;;5094478;28;20400;-70
2022/01/10 07:18:32;;;;;;;2.40;1.20;;;22.10;35.00;;;;;;5093763;28;20896;-69
2022/01/10 07:20:58;;;;;;;3.35;1.30;;;22.20;35.10;;;;;;5094313;28;20378;-69
2022/01/10 07:23:24;;;;;;;2.30;1.40;;;22.20;35.50;;;;;;5094255;28;20833;-68
2022/01/10 07:25:50;;;;;;;1.85;1.20;;;22.10;34.70;;;;;;5094207;28;20381;-69
2022/01/10 07:28:16;;;;;;;2.67;1.50;;;22.10;34.80;;;;;;5094282;28;20374;-69
2022/01/10 07:30:42;;;;;;;2.67;1.40;;;22.00;34.40;;;;;;5094925;28;20388;-68
2022/01/10 07:33:08;;;;;;;2.60;1.50;;;22.00;34.50;;;;;;5093401;28;20487;-69
2022/01/10 07:35:34;;;;;;;3.45;1.60;;;22.00;34.50;;;;;;5094155;28;20390;-70
2022/01/10 07:38:00;;;;;;;2.67;1.55;;;22.00;34.60;;;;;;5094336;28;20392;-70
2022/01/10 07:40:26;;;;;;;2.40;1.67;;;22.00;34.50;;;;;;5094225;28;20473;-69
2022/01/10 07:42:52;;;;;;;2.95;1.40;;;21.90;33.90;;;;;;5094718;28;20394;-69
2022/01/10 07:45:18;;;;;;;2.00;1.40;;;21.90;34.10;;;;;;5094603;28;20405;-69
2022/01/10 07:47:44;;;;;;;2.33;1.38;;;21.90;34.20;;;;;;5094055;28;20389;-68
2022/01/10 07:50:10;;;;;;;2.63;1.50;;;21.90;34.40;;;;;;5094185;28;20447;-70
2022/01/10 07:52:36;;;;;;;3.40;1.60;;;21.90;34.30;;;;;;5092941;28;20906;-70
2022/01/10 07:55:03;;;;;;;2.78;1.85;;;21.90;34.20;;;;;;5093833;28;20481;-70
2022/01/10 07:57:29;;;;;;;2.97;1.63;;;21.80;33.90;;;;;;5093434;28;20443;-68
2022/01/10 07:59:54;;;;;;;2.65;1.55;;;21.80;34.20;;;;;;5093570;28;20750;-69
2022/01/10 08:02:21;;;;;;;2.33;1.40;;;21.80;34.20;;;;;;5093250;28;20746;-69
2022/01/10 08:04:48;;;;;;;2.10;1.50;;;21.80;34.10;;;;;;5093447;28;20401;-69
2022/01/10 08:07:14;;;;;;;2.30;1.50;;;21.90;34.10;;;;;;5092283;28;20398;-69
2022/01/10 08:09:40;;;;;;;2.20;1.40;;;21.90;34.00;;;;;;5093471;28;20404;-69
2022/01/10 08:12:06;;;;;;;2.65;1.52;;;22.00;34.10;;;;;;5093653;28;20413;-69
2022/01/10 08:14:32;;;;;;;2.00;1.30;;;22.00;34.00;;;;;;5092163;28;20417;-69
2022/01/10 08:17:00;;;;;;;2.90;1.70;;;22.00;34.50;;;;;;5093143;28;20397;-69
2022/01/10 08:19:32;;;;;;;2.00;1.50;;;22.00;33.90;;;;;;5093133;28;20381;-68
2022/01/10 08:21:58;;;;;;;2.38;1.50;;;22.00;33.80;;;;;;5091230;28;20436;-69
2022/01/10 08:24:24;;;;;;;1.95;1.30;;;22.00;33.80;;;;;;5092410;28;20432;-70
2022/01/10 08:26:52;;;;;;;2.70;1.60;;;22.10;33.70;;;;;;5092979;28;20446;-69
2022/01/10 08:29:18;;;;;;;2.22;1.50;;;22.10;33.70;;;;;;5093275;28;20428;-69
2022/01/10 08:31:45;;;;;;;2.20;1.50;;;22.10;33.60;;;;;;5092790;28;20432;-70
2022/01/10 08:34:11;;;;;;;1.80;1.50;;;22.10;33.60;;;;;;5093165;28;20462;-70
2022/01/10 08:36:37;;;;;;;1.98;1.40;;;22.00;33.50;;;;;;5092511;28;20370;-69
2022/01/10 08:39:04;;;;;;;2.23;1.50;;;22.10;33.60;;;;;;5091694;28;20401;-70
2022/01/10 08:41:30;;;;;;;2.10;1.42;;;22.10;33.60;;;;;;5092801;28;20393;-69
2022/01/10 08:43:56;;;;;;;3.03;1.60;;;22.10;33.50;;;;;;5092824;28;20390;-69
2022/01/10 08:46:22;;;;;;;4.32;1.60;;;22.10;33.50;;;;;;5092425;28;20416;-69
2022/01/10 08:48:49;;;;;;;1.80;1.48;;;22.10;33.50;;;;;;5091412;28;20874;-69
2022/01/10 08:51:14;;;;;;;2.20;1.60;;;22.00;33.40;;;;;;5089746;28;20459;-69
2022/01/10 08:53:40;;;;;;;2.20;1.55;;;22.10;33.40;;;;;;5092811;28;20388;-69
2022/01/10 08:56:06;;;;;;;2.35;1.70;;;22.10;33.40;;;;;;5092871;28;20455;-68
2022/01/10 08:58:34;;;;;;;2.30;1.60;;;22.00;33.30;;;;;;5092290;28;20416;-68
2022/01/10 09:01:02;;;;;;;1.98;1.50;;;22.10;33.40;;;;;;5092758;28;20394;-69
2022/01/10 09:03:28;;;;;;;2.70;1.80;;;22.10;33.40;;;;;;5092301;28;20436;-70
2022/01/10 09:05:55;;;;;;;2.38;1.77;;;22.00;33.30;;;;;;5092738;28;20390;-71
2022/01/10 09:08:23;;;;;;;2.10;1.65;;;22.10;33.30;;;;;;5092494;28;20400;-71
2022/01/10 09:10:49;;;;;;;2.33;1.80;;;22.10;33.30;;;;;;5092587;28;20750;-70
2022/01/10 09:13:14;;;;;;;2.60;1.98;;;22.00;33.30;;;;;;5092248;28;20391;-72
2022/01/10 09:15:40;;;;;;;3.00;1.73;;;22.10;33.30;;;;;;5092557;28;20430;-70
2022/01/10 09:18:06;;;;;;;3.20;2.00;;;22.00;33.30;;;;;;5092720;28;20394;-71
2022/01/10 09:20:32;;;;;;;2.50;1.80;;;22.00;33.20;;;;;;5091833;28;20374;-71
2022/01/10 09:22:58;;;;;;;2.08;1.65;;;22.00;33.20;;;;;;5092098;28;20382;-70
2022/01/10 09:25:24;;;;;;;2.53;1.88;;;22.00;33.20;;;;;;5091954;28;20460;-67
2022/01/10 09:27:50;;;;;;;2.50;1.67;;;22.00;33.20;;;;;;5092501;28;20394;-70
2022/01/10 09:30:15;;;;;;;2.80;2.00;;;22.10;33.20;;;;;;5092117;28;20397;-71
2022/01/10 09:32:41;;;;;;;2.83;2.10;;;22.00;33.10;;;;;;5091840;28;20470;-71
2022/01/10 09:35:08;;;;;;;2.47;1.80;;;22.00;33.10;;;;;;5092394;28;20750;-71
2022/01/10 09:37:34;;;;;;;2.75;2.08;;;22.10;33.10;;;;;;5091917;28;20392;-71
2022/01/10 09:39:59;;;;;;;2.70;1.90;;;22.10;33.10;;;;;;5092011;28;20469;-71
2022/01/10 09:42:25;;;;;;;2.63;1.80;;;22.10;33.00;;;;;;5091688;28;20931;-70
2022/01/10 09:44:52;;;;;;;2.63;1.90;;;22.10;33.60;;;;;;5092394;28;20894;-71
2022/01/10 09:47:18;;;;;;;2.63;2.13;;;22.10;33.60;;;;;;5091731;28;20382;-71
2022/01/10 09:49:43;;;;;;;2.90;1.90;;;22.10;33.00;;;;;;5091691;28;20465;-70
2022/01/10 09:52:10;;;;;;;2.73;1.90;;;22.10;32.90;;;;;;5091823;28;20496;-71
2022/01/10 09:54:35;;;;;;;3.38;2.10;;;22.10;32.90;;;;;;5091736;28;20382;-71
2022/01/10 09:57:01;;;;;;;3.40;2.20;;;22.00;32.90;;;;;;5091528;28;20390;-71
2022/01/10 09:59:28;;;;;;;2.53;1.80;;;22.10;32.90;;;;;;5092028;28;20376;-71
2022/01/10 10:01:55;;;;;;;2.60;1.95;;;22.00;32.90;;;;;;5092030;28;20394;-70
2022/01/10 10:04:20;;;;;;;2.75;2.10;;;22.00;32.90;;;;;;5091333;28;20392;-69
2022/01/10 10:06:47;;;;;;;3.00;2.20;;;22.10;32.90;;;;;;5091244;28;20382;-70
2022/01/10 10:09:14;;;;;;;2.60;2.20;;;22.10;32.90;;;;;;5091686;28;20434;-71
2022/01/10 10:11:44;;;;;;;3.20;2.20;;;22.00;32.90;;;;;;5091722;28;20413;-72
2022/01/10 10:14:12;;;;;;;2.92;2.17;;;22.00;32.90;;;;;;5089939;28;20820;-67
2022/01/10 10:16:47;;;;;;;2.60;2.00;;;22.10;32.90;;;;;;5090442;28;20412;-71
2022/01/10 10:19:14;;;;;;;2.88;2.10;;;22.00;32.80;;;;;;5091591;28;20791;-72
2022/01/10 10:21:40;;;;;;;2.70;2.20;;;22.00;32.80;;;;;;5091434;28;20478;-72
2022/01/10 10:24:06;;;;;;;2.80;2.20;;;22.00;32.80;;;;;;5091277;28;20807;-71
2022/01/10 10:26:32;;;;;;;2.92;2.20;;;22.00;32.80;;;;;;5090734;28;20443;-71
2022/01/10 10:28:59;;;;;;;2.72;2.20;;;22.00;32.80;;;;;;5091875;28;20388;-71
2022/01/10 10:31:35;;;;;;;2.25;2.00;;;22.00;32.80;;;;;;5090935;28;20877;-70
2022/01/10 10:34:03;;;;;;;2.92;2.30;;;22.00;32.70;;;;;;5091183;28;20389;-70
2022/01/10 10:36:31;;;;;;;2.78;2.17;;;22.00;32.80;;;;;;5090713;28;20378;-72
2022/01/10 10:38:59;;;;;;;2.70;2.10;;;22.00;32.60;;;;;;5091596;28;20397;-70
2022/01/10 10:41:25;;;;;;;3.03;2.33;;;22.00;32.60;;;;;;5090038;28;20394;-64
2022/01/10 10:43:54;;;;;;;3.13;2.20;;;22.00;32.80;;;;;;5089723;28;20386;-70
2022/01/10 10:46:24;;;;;;;10.48;9.07;;;22.00;33.40;;;;;;5089792;28;21429;-69
2022/01/10 10:48:53;;;;;;;163.75;65.82;;;22.10;33.30;;;;;;5086799;28;20934;-71
2022/01/10 10:51:19;;;;;;;102.82;44.67;;;22.10;34.30;;;;;;5089851;28;20401;-71
2022/01/10 10:53:45;;;;;;;120.10;54.90;;;22.20;33.40;;;;;;5089899;28;20397;-69
2022/01/10 10:56:11;;;;;;;126.82;56.75;;;22.30;35.20;;;;;;5089313;28;20390;-66
2022/01/10 10:58:41;;;;;;;110.32;50.25;;;22.30;35.00;;;;;;5088999;28;20393;-69
2022/01/10 11:01:07;;;;;;;111.45;47.75;;;22.40;35.30;;;;;;5089718;28;20382;-65
2022/01/10 11:03:32;;;;;;;99.30;46.92;;;22.40;35.50;;;;;;5089904;28;20393;-67
2022/01/10 11:06:01;;;;;;;100.83;49.07;;;22.40;34.70;;;;;;5086746;28;20858;-66
2022/01/10 11:08:31;;;;;;;105.40;48.15;;;22.40;35.20;;;;;;5088647;28;20405;-66
2022/01/10 11:11:01;;;;;;;95.63;45.38;;;22.40;35.70;;;;;;5089699;28;20483;-68
2022/01/10 11:13:28;;;;;;;94.43;44.95;;;22.50;35.60;;;;;;5089803;28;20555;-69
2022/01/10 11:15:55;;;;;;;81.30;41.17;;;22.40;35.50;;;;;;5089240;28;20386;-67
2022/01/10 11:18:22;;;;;;;80.00;40.58;;;22.40;35.40;;;;;;5089092;28;20924;-68
2022/01/10 11:20:51;;;;;;;81.30;38.90;;;22.40;35.20;;;;;;5089276;28;20878;-70
2022/01/10 11:23:18;;;;;;;75.50;37.53;;;22.40;35.00;;;;;;5089194;28;20396;-70
2022/01/10 11:25:44;;;;;;;64.07;33.95;;;22.40;35.00;;;;;;5088987;28;20857;-71
2022/01/10 11:28:25;;;;;;;40.60;23.52;;;22.40;34.30;;;;;;5089080;28;20390;-70
2022/01/10 11:30:53;;;;;;;37.90;19.15;;;22.30;34.70;;;;;;5085932;28;20469;-66
2022/01/10 11:33:26;;;;;;;34.90;17.70;;;22.30;34.80;;;;;;5088863;28;20497;-70
2022/01/10 11:35:53;;;;;;;30.05;16.20;;;22.30;34.90;;;;;;5089331;28;20862;-70
2022/01/10 11:38:30;;;;;;;32.78;16.75;;;22.30;34.40;;;;;;5090493;28;20390;-70
2022/01/10 11:41:01;;;;;;;29.98;16.77;;;22.20;34.90;;;;;;5090545;28;20386;-70
2022/01/10 11:44:07;;;;;;;35.43;17.23;;;22.20;34.80;;;;;;5090162;28;20390;-71
2022/01/10 11:46:38;;;;;;;28.83;15.23;;;22.20;34.60;;;;;;5088489;28;20385;-71
2022/01/10 11:49:09;;;;;;;27.63;15.70;;;22.20;34.40;;;;;;5092230;28;21019;-71
2022/01/10 11:51:37;;;;;;;27.63;15.88;;;22.20;34.30;;;;;;5093918;28;20412;-71
2022/01/10 11:54:14;;;;;;;27.83;15.60;;;22.20;34.30;;;;;;5094058;28;20401;-71
2022/01/10 11:56:50;;;;;;;27.13;15.05;;;22.20;34.20;;;;;;5093914;28;20378;-71
2022/01/10 11:59:21;;;;;;;24.30;13.60;;;22.20;34.10;;;;;;5094354;28;20484;-71
2022/01/10 12:02:16;;;;;;;21.47;13.50;;;22.20;33.90;;;;;;5093986;28;20382;-71
2022/01/10 12:04:45;;;;;;;22.77;12.83;;;22.10;33.70;;;;;;5092139;28;20497;-71
2022/01/10 12:07:13;;;;;;;20.95;12.48;;;22.10;33.70;;;;;;5092742;28;20786;-70
2022/01/10 12:09:40;;;;;;;22.60;11.95;;;22.10;33.60;;;;;;5092418;28;20747;-71
2022/01/10 12:12:11;;;;;;;21.88;12.07;;;22.10;33.50;;;;;;5093587;28;20778;-71
2022/01/10 12:14:37;;;;;;;20.40;11.20;;;22.10;33.50;;;;;;5093302;28;20926;-71
2022/01/10 12:17:03;;;;;;;18.70;10.65;;;22.10;33.40;;;;;;5093841;28;20480;-71
2022/01/10 12:19:29;;;;;;;19.20;10.80;;;22.10;33.40;;;;;;5091867;28;20390;-70
2022/01/10 12:21:55;;;;;;;18.07;10.30;;;22.10;33.30;;;;;;5093365;28;20401;-71
2022/01/10 12:24:21;;;;;;;15.70;9.67;;;22.10;33.30;;;;;;5093111;28;20868;-71
2022/01/10 12:26:48;;;;;;;15.95;9.40;;;22.00;33.20;;;;;;5091726;28;20481;-71
2022/01/10 12:29:15;;;;;;;14.13;9.02;;;22.00;33.20;;;;;;5093446;28;20885;-72
2022/01/10 12:31:43;;;;;;;15.20;8.77;;;22.00;33.20;;;;;;5093426;28;20968;-71
2022/01/10 12:34:10;;;;;;;13.32;8.90;;;22.00;33.10;;;;;;5093778;28;20448;-64
2022/01/10 12:36:38;;;;;;;13.40;7.75;;;22.00;33.10;;;;;;5092963;28;20382;-69
2022/01/10 12:39:12;;;;;;;11.95;7.55;;;22.00;33.20;;;;;;5091758;28;20390;-67
2022/01/10 12:41:38;;;;;;;12.55;7.78;;;22.00;33.40;;;;;;5093492;28;20433;-63
2022/01/10 12:44:05;;;;;;;14.77;7.60;;;22.10;33.30;;;;;;5092266;28;20886;-69
2022/01/10 12:46:33;;;;;;;11.32;7.32;;;22.10;33.30;;;;;;5091486;28;20382;-71
2022/01/10 12:49:07;;;;;;;11.57;7.03;;;22.10;33.30;;;;;;5092964;28;20746;-64
2022/01/10 12:51:36;;;;;;;12.00;7.28;;;22.10;33.70;;;;;;5093154;28;20820;-70